sensor_id;sensor_type;location;lat;lon;timestamp;temperature;humidity
44117;DHT22;29781;49.480;8.512;2022-09-20T00:01:16;13.00;99.90
44117;DHT22;29781;49.480;8.512;2022-09-20T00:03:45;13.00;99.90
44117;DHT22;29781;49.480;8.512;2022-09-20T00:06:14;12.80;99.90
44117;DHT22;29781;49.480;8.512;2022-09-20T00:08:40;12.90;99.90
44117;DHT22;29781;49.480;8.512;2022-09-20T00:11:09;12.80;99.90
44117;DHT22;29781;49.480;8.512;2022-09-20T00:13:37;12.80;99.90
44117;DHT22;29781;49.480;8.512;2022-09-20T00:16:07;12.70;99.90
44117;DHT22;29781;49.480;8.512;2022-09-20T00:18:33;12.60;99.90
44117;DHT22;29781;49.480;8.512;2022-09-20T00:20:59;12.50;99.90
44117;DHT22;29781;49.480;8.512;2022-09-20T00:23:24;12.50;99.90
44117;DHT22;29781;49.480;8.512;2022-09-20T00:25:58;12.60;99.90
44117;DHT22;29781;49.480;8.512;2022-09-20T00:28:24;12.70;99.90
44117;DHT22;29781;49.480;8.512;2022-09-20T00:30:51;12.70;99.90
44117;DHT22;29781;49.480;8.512;2022-09-20T00:33:18;12.80;99.90
44117;DHT22;29781;49.480;8.512;2022-09-20T00:35:44;12.50;99.90
44117;DHT22;29781;49.480;8.512;2022-09-20T00:38:11;12.40;99.90
44117;DHT22;29781;49.480;8.512;2022-09-20T00:40:39;12.40;99.90
44117;DHT22;29781;49.480;8.512;2022-09-20T00:43:04;12.10;99.90
44117;DHT22;29781;49.480;8.512;2022-09-20T00:45:30;12.00;99.90
44117;DHT22;29781;49.480;8.512;2022-09-20T00:50:41;12.00;99.90
44117;DHT22;29781;49.480;8.512;2022-09-20T00:55:37;12.20;99.90
44117;DHT22;29781;49.480;8.512;2022-09-20T00:58:05;12.30;99.90
44117;DHT22;29781;49.480;8.512;2022-09-20T01:00:31;12.40;99.90
44117;DHT22;29781;49.480;8.512;2022-09-20T01:03:02;12.40;99.90
44117;DHT22;29781;49.480;8.512;2022-09-20T01:05:30;12.50;99.90
44117;DHT22;29781;49.480;8.512;2022-09-20T01:07:57;12.60;99.90
44117;DHT22;29781;49.480;8.512;2022-09-20T01:10:23;12.60;99.90
44117;DHT22;29781;49.480;8.512;2022-09-20T01:12:50;12.60;99.90
44117;DHT22;29781;49.480;8.512;2022-09-20T01:15:17;12.50;99.90
44117;DHT22;29781;49.480;8.512;2022-09-20T01:17:48;12.50;99.90
44117;DHT22;29781;49.480;8.512;2022-09-20T01:20:21;12.50;99.90
44117;DHT22;29781;49.480;8.512;2022-09-20T01:28:06;12.40;99.90
44117;DHT22;29781;49.480;8.512;2022-09-20T01:30:53;12.30;99.90
44117;DHT22;29781;49.480;8.512;2022-09-20T01:33:47;12.40;99.90
44117;DHT22;29781;49.480;8.512;2022-09-20T01:36:22;12.50;99.90
44117;DHT22;29781;49.480;8.512;2022-09-20T01:41:59;12.60;99.90
44117;DHT22;29781;49.480;8.512;2022-09-20T01:56:03;12.70;99.90
44117;DHT22;29781;49.480;8.512;2022-09-20T02:13:06;12.50;99.90
44117;DHT22;29781;49.480;8.512;2022-09-20T02:30:13;12.60;99.90
44117;DHT22;29781;49.480;8.512;2022-09-20T02:33:29;12.40;99.90
44117;DHT22;29781;49.480;8.512;2022-09-20T02:38:35;12.40;99.90
44117;DHT22;29781;49.480;8.512;2022-09-20T02:43:55;12.40;99.90
44117;DHT22;29781;49.480;8.512;2022-09-20T02:46:27;12.40;99.90
44117;DHT22;29781;49.480;8.512;2022-09-20T02:49:22;12.30;99.90
44117;DHT22;29781;49.480;8.512;2022-09-20T02:51:56;12.40;99.90
44117;DHT22;29781;49.480;8.512;2022-09-20T02:54:33;12.40;99.90
44117;DHT22;29781;49.480;8.512;2022-09-20T03:10:48;12.40;99.90
44117;DHT22;29781;49.480;8.512;2022-09-20T03:16:44;12.30;99.90
44117;DHT22;29781;49.480;8.512;2022-09-20T03:19:31;12.20;99.90
44117;DHT22;29781;49.480;8.512;2022-09-20T03:27:44;12.20;99.90
44117;DHT22;29781;49.480;8.512;2022-09-20T03:52:04;12.10;99.90
44117;DHT22;29781;49.480;8.512;2022-09-20T03:54:50;12.10;99.90
44117;DHT22;29781;49.480;8.512;2022-09-20T03:57:54;12.10;99.90
44117;DHT22;29781;49.480;8.512;2022-09-20T04:00:37;12.20;99.90
44117;DHT22;29781;49.480;8.512;2022-09-20T04:06:40;12.20;99.90
44117;DHT22;29781;49.480;8.512;2022-09-20T04:20:51;11.80;99.90
44117;DHT22;29781;49.480;8.512;2022-09-20T04:24:00;11.80;99.90
44117;DHT22;29781;49.480;8.512;2022-09-20T04:26:32;11.80;99.90
44117;DHT22;29781;49.480;8.512;2022-09-20T04:35:25;11.80;99.90
44117;DHT22;29781;49.480;8.512;2022-09-20T04:38:17;11.80;99.90
44117;DHT22;29781;49.480;8.512;2022-09-20T04:40:55;11.80;99.90
44117;DHT22;29781;49.480;8.512;2022-09-20T04:46:20;11.80;99.90
44117;DHT22;29781;49.480;8.512;2022-09-20T04:51:44;11.60;99.90
44117;DHT22;29781;49.480;8.512;2022-09-20T04:57:57;11.60;99.90
44117;DHT22;29781;49.480;8.512;2022-09-20T05:00:07;11.60;99.90
44117;DHT22;29781;49.480;8.512;2022-09-20T05:03:03;11.60;99.90
44117;DHT22;29781;49.480;8.512;2022-09-20T05:05:59;11.60;99.90
44117;DHT22;29781;49.480;8.512;2022-09-20T05:18:28;11.50;99.90
44117;DHT22;29781;49.480;8.512;2022-09-20T05:28:48;11.50;99.90
44117;DHT22;29781;49.480;8.512;2022-09-20T05:31:42;11.50;99.90
44117;DHT22;29781;49.480;8.512;2022-09-20T05:34:18;11.50;99.90
44117;DHT22;29781;49.480;8.512;2022-09-20T05:37:08;11.50;99.90
44117;DHT22;29781;49.480;8.512;2022-09-20T05:39:48;11.40;99.90
44117;DHT22;29781;49.480;8.512;2022-09-20T05:43:01;11.40;99.90
44117;DHT22;29781;49.480;8.512;2022-09-20T05:48:13;11.10;99.90
44117;DHT22;29781;49.480;8.512;2022-09-20T05:50:51;11.00;99.90
44117;DHT22;29781;49.480;8.512;2022-09-20T05:53:59;11.10;99.90
44117;DHT22;29781;49.480;8.512;2022-09-20T06:02:09;11.00;99.90
44117;DHT22;29781;49.480;8.512;2022-09-20T06:04:51;11.10;99.90
44117;DHT22;29781;49.480;8.512;2022-09-20T06:10:25;11.20;99.90
44117;DHT22;29781;49.480;8.512;2022-09-20T06:13:18;11.20;99.90
44117;DHT22;29781;49.480;8.512;2022-09-20T06:16:22;11.00;99.90
44117;DHT22;29781;49.480;8.512;2022-09-20T06:19:04;11.10;99.90
44117;DHT22;29781;49.480;8.512;2022-09-20T06:21:50;10.90;99.90
44117;DHT22;29781;49.480;8.512;2022-09-20T06:26:50;10.50;99.90
44117;DHT22;29781;49.480;8.512;2022-09-20T06:29:26;10.40;99.90
44117;DHT22;29781;49.480;8.512;2022-09-20T06:31:53;10.40;99.90
44117;DHT22;29781;49.480;8.512;2022-09-20T06:34:19;10.40;99.90
44117;DHT22;29781;49.480;8.512;2022-09-20T06:36:49;10.50;99.90
44117;DHT22;29781;49.480;8.512;2022-09-20T06:42:45;10.70;99.90
44117;DHT22;29781;49.480;8.512;2022-09-20T06:45:10;10.70;99.90
44117;DHT22;29781;49.480;8.512;2022-09-20T06:47:36;10.70;99.90
44117;DHT22;29781;49.480;8.512;2022-09-20T06:50:02;10.60;99.90
44117;DHT22;29781;49.480;8.512;2022-09-20T06:52:27;10.50;99.90
44117;DHT22;29781;49.480;8.512;2022-09-20T06:54:54;10.50;99.90
44117;DHT22;29781;49.480;8.512;2022-09-20T06:57:31;10.70;99.90
44117;DHT22;29781;49.480;8.512;2022-09-20T06:59:57;10.70;99.90
44117;DHT22;29781;49.480;8.512;2022-09-20T07:02:23;10.80;99.90
44117;DHT22;29781;49.480;8.512;2022-09-20T07:04:49;10.70;99.90
44117;DHT22;29781;49.480;8.512;2022-09-20T07:07:18;10.70;99.90
44117;DHT22;29781;49.480;8.512;2022-09-20T07:09:44;10.80;99.90
44117;DHT22;29781;49.480;8.512;2022-09-20T07:12:10;11.00;99.90
44117;DHT22;29781;49.480;8.512;2022-09-20T07:14:37;11.00;99.90
44117;DHT22;29781;49.480;8.512;2022-09-20T07:17:03;11.10;99.90
44117;DHT22;29781;49.480;8.512;2022-09-20T07:19:29;11.30;99.90
44117;DHT22;29781;49.480;8.512;2022-09-20T07:21:54;11.40;99.90
44117;DHT22;29781;49.480;8.512;2022-09-20T07:24:20;11.30;99.90
44117;DHT22;29781;49.480;8.512;2022-09-20T07:27:00;11.30;99.90
44117;DHT22;29781;49.480;8.512;2022-09-20T07:29:26;11.30;99.90
44117;DHT22;29781;49.480;8.512;2022-09-20T07:31:52;11.60;99.90
44117;DHT22;29781;49.480;8.512;2022-09-20T07:34:18;11.90;99.90
44117;DHT22;29781;49.480;8.512;2022-09-20T07:36:45;12.20;99.90
44117;DHT22;29781;49.480;8.512;2022-09-20T07:39:11;12.40;99.90
44117;DHT22;29781;49.480;8.512;2022-09-20T07:41:37;12.30;99.90
44117;DHT22;29781;49.480;8.512;2022-09-20T07:44:03;12.60;99.90
44117;DHT22;29781;49.480;8.512;2022-09-20T07:46:54;12.40;99.90
44117;DHT22;29781;49.480;8.512;2022-09-20T07:49:22;12.50;99.90
44117;DHT22;29781;49.480;8.512;2022-09-20T07:51:49;12.50;99.90
44117;DHT22;29781;49.480;8.512;2022-09-20T07:54:15;12.90;99.90
44117;DHT22;29781;49.480;8.512;2022-09-20T07:56:41;12.60;99.90
44117;DHT22;29781;49.480;8.512;2022-09-20T07:59:07;12.90;99.90
44117;DHT22;29781;49.480;8.512;2022-09-20T08:01:35;13.00;99.90
44117;DHT22;29781;49.480;8.512;2022-09-20T08:04:00;13.00;99.90
44117;DHT22;29781;49.480;8.512;2022-09-20T08:06:26;13.10;99.90
44117;DHT22;29781;49.480;8.512;2022-09-20T08:08:52;13.20;99.90
44117;DHT22;29781;49.480;8.512;2022-09-20T08:11:20;13.20;99.90
44117;DHT22;29781;49.480;8.512;2022-09-20T08:13:52;12.80;99.90
44117;DHT22;29781;49.480;8.512;2022-09-20T08:16:19;12.60;99.90
44117;DHT22;29781;49.480;8.512;2022-09-20T08:18:53;12.40;99.90
44117;DHT22;29781;49.480;8.512;2022-09-20T08:21:23;12.60;99.90
44117;DHT22;29781;49.480;8.512;2022-09-20T08:23:49;12.70;99.90
44117;DHT22;29781;49.480;8.512;2022-09-20T08:26:17;12.70;99.90
44117;DHT22;29781;49.480;8.512;2022-09-20T08:28:44;12.80;99.90
44117;DHT22;29781;49.480;8.512;2022-09-20T08:31:12;12.90;99.90
44117;DHT22;29781;49.480;8.512;2022-09-20T08:33:39;13.10;99.90
44117;DHT22;29781;49.480;8.512;2022-09-20T08:36:06;13.00;99.90
44117;DHT22;29781;49.480;8.512;2022-09-20T08:38:33;12.90;99.90
44117;DHT22;29781;49.480;8.512;2022-09-20T08:43:57;13.20;99.90
44117;DHT22;29781;49.480;8.512;2022-09-20T08:46:38;13.30;99.90
44117;DHT22;29781;49.480;8.512;2022-09-20T08:49:05;13.40;99.90
44117;DHT22;29781;49.480;8.512;2022-09-20T08:51:36;13.50;99.90
44117;DHT22;29781;49.480;8.512;2022-09-20T08:54:04;13.60;99.90
44117;DHT22;29781;49.480;8.512;2022-09-20T08:56:34;13.70;99.90
44117;DHT22;29781;49.480;8.512;2022-09-20T08:59:05;13.80;99.90
44117;DHT22;29781;49.480;8.512;2022-09-20T09:01:33;13.80;99.90
44117;DHT22;29781;49.480;8.512;2022-09-20T09:04:18;13.90;99.90
44117;DHT22;29781;49.480;8.512;2022-09-20T09:06:46;14.10;99.90
44117;DHT22;29781;49.480;8.512;2022-09-20T09:09:26;14.20;99.90
44117;DHT22;29781;49.480;8.512;2022-09-20T09:11:54;14.20;99.90
44117;DHT22;29781;49.480;8.512;2022-09-20T09:14:29;14.40;99.90
44117;DHT22;29781;49.480;8.512;2022-09-20T09:17:18;14.40;99.90
44117;DHT22;29781;49.480;8.512;2022-09-20T09:20:17;14.30;99.90
44117;DHT22;29781;49.480;8.512;2022-09-20T09:22:47;14.10;99.90
44117;DHT22;29781;49.480;8.512;2022-09-20T09:25:23;14.30;99.90
44117;DHT22;29781;49.480;8.512;2022-09-20T09:27:58;14.50;99.90
44117;DHT22;29781;49.480;8.512;2022-09-20T09:33:19;14.80;99.90
44117;DHT22;29781;49.480;8.512;2022-09-20T09:38:29;14.50;99.90
44117;DHT22;29781;49.480;8.512;2022-09-20T09:41:05;14.30;99.90
44117;DHT22;29781;49.480;8.512;2022-09-20T09:43:35;14.40;99.90
44117;DHT22;29781;49.480;8.512;2022-09-20T09:46:22;14.40;99.90
44117;DHT22;29781;49.480;8.512;2022-09-20T09:49:12;14.20;99.90
44117;DHT22;29781;49.480;8.512;2022-09-20T09:51:40;14.10;99.90
44117;DHT22;29781;49.480;8.512;2022-09-20T09:54:16;14.00;99.90
44117;DHT22;29781;49.480;8.512;2022-09-20T09:56:52;13.90;99.90
44117;DHT22;29781;49.480;8.512;2022-09-20T10:02:27;13.80;99.90
44117;DHT22;29781;49.480;8.512;2022-09-20T10:07:43;13.70;99.90
44117;DHT22;29781;49.480;8.512;2022-09-20T10:10:31;13.60;99.90
44117;DHT22;29781;49.480;8.512;2022-09-20T10:15:49;13.70;99.90
44117;DHT22;29781;49.480;8.512;2022-09-20T10:21:30;13.90;99.90
44117;DHT22;29781;49.480;8.512;2022-09-20T10:24:10;13.80;99.90
44117;DHT22;29781;49.480;8.512;2022-09-20T10:32:57;13.70;99.90
44117;DHT22;29781;49.480;8.512;2022-09-20T10:38:37;13.90;99.90
44117;DHT22;29781;49.480;8.512;2022-09-20T10:46:55;14.30;99.90
44117;DHT22;29781;49.480;8.512;2022-09-20T10:55:40;14.10;99.90
44117;DHT22;29781;49.480;8.512;2022-09-20T11:01:02;14.30;99.90
44117;DHT22;29781;49.480;8.512;2022-09-20T11:04:03;14.30;99.90
44117;DHT22;29781;49.480;8.512;2022-09-20T11:09:03;14.00;99.90
44117;DHT22;29781;49.480;8.512;2022-09-20T11:11:35;13.90;99.90
44117;DHT22;29781;49.480;8.512;2022-09-20T11:24:32;13.60;99.90
44117;DHT22;29781;49.480;8.512;2022-09-20T11:27:16;13.80;99.90
44117;DHT22;29781;49.480;8.512;2022-09-20T11:29:49;14.00;99.90
44117;DHT22;29781;49.480;8.512;2022-09-20T11:32:24;14.20;99.90
44117;DHT22;29781;49.480;8.512;2022-09-20T11:35:13;14.20;99.90
44117;DHT22;29781;49.480;8.512;2022-09-20T11:37:59;14.10;99.90
44117;DHT22;29781;49.480;8.512;2022-09-20T11:40:38;13.80;99.90
44117;DHT22;29781;49.480;8.512;2022-09-20T11:43:07;13.70;99.90
44117;DHT22;29781;49.480;8.512;2022-09-20T11:45:34;12.80;99.90
44117;DHT22;29781;49.480;8.512;2022-09-20T11:48:17;12.30;99.90
44117;DHT22;29781;49.480;8.512;2022-09-20T11:51:22;12.20;99.90
44117;DHT22;29781;49.480;8.512;2022-09-20T11:56:30;12.00;99.90
44117;DHT22;29781;49.480;8.512;2022-09-20T11:59:00;12.00;99.90
44117;DHT22;29781;49.480;8.512;2022-09-20T12:01:31;12.20;99.90
44117;DHT22;29781;49.480;8.512;2022-09-20T12:04:30;12.30;99.90
44117;DHT22;29781;49.480;8.512;2022-09-20T12:07:19;12.50;99.90
44117;DHT22;29781;49.480;8.512;2022-09-20T12:10:23;12.80;99.90
44117;DHT22;29781;49.480;8.512;2022-09-20T12:12:56;13.20;99.90
44117;DHT22;29781;49.480;8.512;2022-09-20T12:15:26;13.40;99.90
44117;DHT22;29781;49.480;8.512;2022-09-20T12:28:57;14.40;99.90
44117;DHT22;29781;49.480;8.512;2022-09-20T12:36:28;14.70;99.90
44117;DHT22;29781;49.480;8.512;2022-09-20T13:00:48;15.10;99.90
44117;DHT22;29781;49.480;8.512;2022-09-20T13:05:47;15.10;99.90
44117;DHT22;29781;49.480;8.512;2022-09-20T13:08:27;15.20;99.90
44117;DHT22;29781;49.480;8.512;2022-09-20T13:11:23;15.20;99.90
44117;DHT22;29781;49.480;8.512;2022-09-20T13:13:54;15.20;99.90
44117;DHT22;29781;49.480;8.512;2022-09-20T13:19:23;15.10;99.90
44117;DHT22;29781;49.480;8.512;2022-09-20T13:24:31;15.10;99.90
44117;DHT22;29781;49.480;8.512;2022-09-20T13:27:04;15.10;99.90
44117;DHT22;29781;49.480;8.512;2022-09-20T13:29:39;15.10;99.90
44117;DHT22;29781;49.480;8.512;2022-09-20T13:32:28;15.00;99.90
44117;DHT22;29781;49.480;8.512;2022-09-20T13:40:23;14.90;99.90
44117;DHT22;29781;49.480;8.512;2022-09-20T13:42:51;14.90;99.90
44117;DHT22;29781;49.480;8.512;2022-09-20T13:45:18;14.90;99.90
44117;DHT22;29781;49.480;8.512;2022-09-20T13:47:50;14.90;99.90
44117;DHT22;29781;49.480;8.512;2022-09-20T13:50:27;14.80;99.90
44117;DHT22;29781;49.480;8.512;2022-09-20T13:53:01;14.80;99.90
44117;DHT22;29781;49.480;8.512;2022-09-20T13:55:31;14.80;99.90
44117;DHT22;29781;49.480;8.512;2022-09-20T13:58:23;14.80;99.90
44117;DHT22;29781;49.480;8.512;2022-09-20T14:00:55;14.90;99.90
44117;DHT22;29781;49.480;8.512;2022-09-20T14:03:22;14.90;99.90
44117;DHT22;29781;49.480;8.512;2022-09-20T14:05:50;14.90;99.90
44117;DHT22;29781;49.480;8.512;2022-09-20T14:08:44;14.80;99.90
44117;DHT22;29781;49.480;8.512;2022-09-20T14:11:17;14.70;99.90
44117;DHT22;29781;49.480;8.512;2022-09-20T14:13:47;14.70;99.90
44117;DHT22;29781;49.480;8.512;2022-09-20T14:16:13;14.70;99.90
44117;DHT22;29781;49.480;8.512;2022-09-20T14:18:41;14.70;99.90
44117;DHT22;29781;49.480;8.512;2022-09-20T14:21:08;14.70;99.90
44117;DHT22;29781;49.480;8.512;2022-09-20T14:23:57;14.70;99.90
44117;DHT22;29781;49.480;8.512;2022-09-20T14:26:31;14.70;99.90
44117;DHT22;29781;49.480;8.512;2022-09-20T14:29:35;14.80;99.90
44117;DHT22;29781;49.480;8.512;2022-09-20T14:32:25;14.80;99.90
44117;DHT22;29781;49.480;8.512;2022-09-20T14:37:22;14.80;99.90
44117;DHT22;29781;49.480;8.512;2022-09-20T14:40:18;14.80;99.90
44117;DHT22;29781;49.480;8.512;2022-09-20T14:42:54;14.80;99.90
44117;DHT22;29781;49.480;8.512;2022-09-20T14:47:56;14.80;99.90
44117;DHT22;29781;49.480;8.512;2022-09-20T14:50:33;14.80;99.90
44117;DHT22;29781;49.480;8.512;2022-09-20T14:55:28;14.70;99.90
44117;DHT22;29781;49.480;8.512;2022-09-20T14:58:01;14.70;99.90
44117;DHT22;29781;49.480;8.512;2022-09-20T15:00:27;14.80;99.90
44117;DHT22;29781;49.480;8.512;2022-09-20T15:02:55;14.90;99.90
44117;DHT22;29781;49.480;8.512;2022-09-20T15:05:28;14.80;99.90
44117;DHT22;29781;49.480;8.512;2022-09-20T15:07:55;14.80;99.90
44117;DHT22;29781;49.480;8.512;2022-09-20T15:10:21;14.70;99.90
44117;DHT22;29781;49.480;8.512;2022-09-20T15:12:48;14.70;99.90
44117;DHT22;29781;49.480;8.512;2022-09-20T15:15:15;14.70;99.90
44117;DHT22;29781;49.480;8.512;2022-09-20T15:17:45;14.80;99.90
44117;DHT22;29781;49.480;8.512;2022-09-20T15:20:17;14.80;99.90
44117;DHT22;29781;49.480;8.512;2022-09-20T15:22:45;14.80;99.90
44117;DHT22;29781;49.480;8.512;2022-09-20T15:25:16;14.80;99.90
44117;DHT22;29781;49.480;8.512;2022-09-20T15:27:44;14.70;99.90
44117;DHT22;29781;49.480;8.512;2022-09-20T15:30:13;14.80;99.90
44117;DHT22;29781;49.480;8.512;2022-09-20T15:32:41;14.80;99.90
44117;DHT22;29781;49.480;8.512;2022-09-20T15:35:07;14.80;99.90
44117;DHT22;29781;49.480;8.512;2022-09-20T15:37:33;14.80;99.90
44117;DHT22;29781;49.480;8.512;2022-09-20T15:39:59;14.90;99.90
44117;DHT22;29781;49.480;8.512;2022-09-20T15:42:24;14.90;99.90
44117;DHT22;29781;49.480;8.512;2022-09-20T15:44:50;14.90;99.90
44117;DHT22;29781;49.480;8.512;2022-09-20T15:47:16;14.90;99.90
44117;DHT22;29781;49.480;8.512;2022-09-20T15:49:42;15.00;99.90
44117;DHT22;29781;49.480;8.512;2022-09-20T15:52:12;15.10;99.90
44117;DHT22;29781;49.480;8.512;2022-09-20T15:54:38;15.10;99.90
44117;DHT22;29781;49.480;8.512;2022-09-20T15:57:04;15.20;99.90
44117;DHT22;29781;49.480;8.512;2022-09-20T15:59:29;15.20;99.90
44117;DHT22;29781;49.480;8.512;2022-09-20T16:01:57;15.20;99.90
44117;DHT22;29781;49.480;8.512;2022-09-20T16:04:24;15.20;99.90
44117;DHT22;29781;49.480;8.512;2022-09-20T16:06:52;15.20;99.90
44117;DHT22;29781;49.480;8.512;2022-09-20T16:09:18;15.10;99.90
44117;DHT22;29781;49.480;8.512;2022-09-20T16:11:45;15.10;99.90
44117;DHT22;29781;49.480;8.512;2022-09-20T16:14:11;15.00;99.90
44117;DHT22;29781;49.480;8.512;2022-09-20T16:16:37;14.90;99.90
44117;DHT22;29781;49.480;8.512;2022-09-20T16:19:03;14.90;99.90
44117;DHT22;29781;49.480;8.512;2022-09-20T16:21:55;14.90;99.90
44117;DHT22;29781;49.480;8.512;2022-09-20T16:24:26;14.90;99.90
44117;DHT22;29781;49.480;8.512;2022-09-20T16:26:52;14.90;99.90
44117;DHT22;29781;49.480;8.512;2022-09-20T16:29:18;14.90;99.90
44117;DHT22;29781;49.480;8.512;2022-09-20T16:31:47;14.90;99.90
44117;DHT22;29781;49.480;8.512;2022-09-20T16:34:29;14.90;99.90
44117;DHT22;29781;49.480;8.512;2022-09-20T16:37:15;14.90;99.90
44117;DHT22;29781;49.480;8.512;2022-09-20T16:39:42;14.90;99.90
44117;DHT22;29781;49.480;8.512;2022-09-20T16:42:09;14.90;99.90
44117;DHT22;29781;49.480;8.512;2022-09-20T16:44:38;14.90;99.90
44117;DHT22;29781;49.480;8.512;2022-09-20T16:47:09;14.80;99.90
44117;DHT22;29781;49.480;8.512;2022-09-20T16:49:36;14.70;99.90
44117;DHT22;29781;49.480;8.512;2022-09-20T16:52:06;14.70;99.90
44117;DHT22;29781;49.480;8.512;2022-09-20T16:54:33;14.70;99.90
44117;DHT22;29781;49.480;8.512;2022-09-20T16:56:59;14.70;99.90
44117;DHT22;29781;49.480;8.512;2022-09-20T16:59:25;14.80;99.90
44117;DHT22;29781;49.480;8.512;2022-09-20T17:01:51;14.70;99.90
44117;DHT22;29781;49.480;8.512;2022-09-20T17:04:17;14.70;99.90
44117;DHT22;29781;49.480;8.512;2022-09-20T17:06:45;14.70;99.90
44117;DHT22;29781;49.480;8.512;2022-09-20T17:09:12;14.60;99.90
44117;DHT22;29781;49.480;8.512;2022-09-20T17:11:40;14.60;99.90
44117;DHT22;29781;49.480;8.512;2022-09-20T17:14:06;14.70;99.90
44117;DHT22;29781;49.480;8.512;2022-09-20T17:16:34;14.80;99.90
44117;DHT22;29781;49.480;8.512;2022-09-20T17:19:11;14.80;99.90
44117;DHT22;29781;49.480;8.512;2022-09-20T17:21:39;14.70;99.90
44117;DHT22;29781;49.480;8.512;2022-09-20T17:24:06;14.40;99.90
44117;DHT22;29781;49.480;8.512;2022-09-20T17:26:36;14.40;99.90
44117;DHT22;29781;49.480;8.512;2022-09-20T17:29:10;14.30;99.90
44117;DHT22;29781;49.480;8.512;2022-09-20T17:31:40;14.30;99.90
44117;DHT22;29781;49.480;8.512;2022-09-20T17:34:07;14.40;99.90
44117;DHT22;29781;49.480;8.512;2022-09-20T17:36:36;14.40;99.90
44117;DHT22;29781;49.480;8.512;2022-09-20T17:39:04;14.40;99.90
44117;DHT22;29781;49.480;8.512;2022-09-20T17:41:30;14.50;99.90
44117;DHT22;29781;49.480;8.512;2022-09-20T17:43:58;14.50;99.90
44117;DHT22;29781;49.480;8.512;2022-09-20T17:46:26;14.40;99.90
44117;DHT22;29781;49.480;8.512;2022-09-20T17:48:59;14.30;99.90
44117;DHT22;29781;49.480;8.512;2022-09-20T17:53:52;14.30;99.90
44117;DHT22;29781;49.480;8.512;2022-09-20T17:56:21;14.20;99.90
44117;DHT22;29781;49.480;8.512;2022-09-20T17:58:48;14.30;99.90
44117;DHT22;29781;49.480;8.512;2022-09-20T18:01:17;14.20;99.90
44117;DHT22;29781;49.480;8.512;2022-09-20T18:03:45;14.20;99.90
44117;DHT22;29781;49.480;8.512;2022-09-20T18:06:12;14.30;99.90
44117;DHT22;29781;49.480;8.512;2022-09-20T18:08:38;14.30;99.90
44117;DHT22;29781;49.480;8.512;2022-09-20T18:11:04;14.30;99.90
44117;DHT22;29781;49.480;8.512;2022-09-20T18:13:30;14.20;99.90
44117;DHT22;29781;49.480;8.512;2022-09-20T18:15:57;14.30;99.90
44117;DHT22;29781;49.480;8.512;2022-09-20T18:18:23;14.20;99.90
44117;DHT22;29781;49.480;8.512;2022-09-20T18:20:49;14.20;99.90
44117;DHT22;29781;49.480;8.512;2022-09-20T18:23:14;14.20;99.90
44117;DHT22;29781;49.480;8.512;2022-09-20T18:25:40;14.10;99.90
44117;DHT22;29781;49.480;8.512;2022-09-20T18:28:24;14.10;99.90
44117;DHT22;29781;49.480;8.512;2022-09-20T18:31:00;14.10;99.90
44117;DHT22;29781;49.480;8.512;2022-09-20T18:33:28;14.00;99.90
44117;DHT22;29781;49.480;8.512;2022-09-20T18:36:04;14.00;99.90
44117;DHT22;29781;49.480;8.512;2022-09-20T18:38:30;13.90;99.90
44117;DHT22;29781;49.480;8.512;2022-09-20T18:40:58;13.90;99.90
44117;DHT22;29781;49.480;8.512;2022-09-20T18:43:29;13.90;99.90
44117;DHT22;29781;49.480;8.512;2022-09-20T18:45:56;13.90;99.90
44117;DHT22;29781;49.480;8.512;2022-09-20T18:48:23;13.90;99.90
44117;DHT22;29781;49.480;8.512;2022-09-20T18:50:59;13.80;99.90
44117;DHT22;29781;49.480;8.512;2022-09-20T18:53:30;13.80;99.90
44117;DHT22;29781;49.480;8.512;2022-09-20T18:56:08;13.70;99.90
44117;DHT22;29781;49.480;8.512;2022-09-20T18:58:36;13.70;99.90
44117;DHT22;29781;49.480;8.512;2022-09-20T19:07:06;13.60;99.90
44117;DHT22;29781;49.480;8.512;2022-09-20T19:09:56;13.60;99.90
44117;DHT22;29781;49.480;8.512;2022-09-20T19:18:45;13.50;99.90
44117;DHT22;29781;49.480;8.512;2022-09-20T19:21:35;13.40;99.90
44117;DHT22;29781;49.480;8.512;2022-09-20T19:26:52;13.50;99.90
44117;DHT22;29781;49.480;8.512;2022-09-20T19:31:50;13.30;99.90
44117;DHT22;29781;49.480;8.512;2022-09-20T19:34:21;13.30;99.90
44117;DHT22;29781;49.480;8.512;2022-09-20T19:37:15;13.20;99.90
44117;DHT22;29781;49.480;8.512;2022-09-20T19:45:34;13.20;99.90
44117;DHT22;29781;49.480;8.512;2022-09-20T19:48:11;13.20;99.90
44117;DHT22;29781;49.480;8.512;2022-09-20T19:50:44;13.30;99.90
44117;DHT22;29781;49.480;8.512;2022-09-20T19:53:13;13.10;99.90
44117;DHT22;29781;49.480;8.512;2022-09-20T19:55:44;13.00;99.90
44117;DHT22;29781;49.480;8.512;2022-09-20T19:58:12;12.80;99.90
44117;DHT22;29781;49.480;8.512;2022-09-20T20:00:38;12.70;99.90
44117;DHT22;29781;49.480;8.512;2022-09-20T20:03:05;12.60;99.90
44117;DHT22;29781;49.480;8.512;2022-09-20T20:05:31;12.60;99.90
44117;DHT22;29781;49.480;8.512;2022-09-20T20:08:16;12.50;99.90
44117;DHT22;29781;49.480;8.512;2022-09-20T20:24:32;12.90;99.90
44117;DHT22;29781;49.480;8.512;2022-09-20T20:27:00;12.90;99.90
44117;DHT22;29781;49.480;8.512;2022-09-20T20:29:26;12.90;99.90
44117;DHT22;29781;49.480;8.512;2022-09-20T20:31:52;13.10;99.90
44117;DHT22;29781;49.480;8.512;2022-09-20T20:34:18;13.10;99.90
44117;DHT22;29781;49.480;8.512;2022-09-20T20:36:45;13.10;99.90
44117;DHT22;29781;49.480;8.512;2022-09-20T20:39:11;13.10;99.90
44117;DHT22;29781;49.480;8.512;2022-09-20T20:41:36;13.10;99.90
44117;DHT22;29781;49.480;8.512;2022-09-20T20:44:03;13.00;99.90
44117;DHT22;29781;49.480;8.512;2022-09-20T20:46:31;12.90;99.90
44117;DHT22;29781;49.480;8.512;2022-09-20T20:48:57;12.90;99.90
44117;DHT22;29781;49.480;8.512;2022-09-20T20:51:23;12.90;99.90
44117;DHT22;29781;49.480;8.512;2022-09-20T20:53:51;12.90;99.90
44117;DHT22;29781;49.480;8.512;2022-09-20T20:56:20;12.90;99.90
44117;DHT22;29781;49.480;8.512;2022-09-20T20:58:47;12.90;99.90
44117;DHT22;29781;49.480;8.512;2022-09-20T21:03:42;12.70;99.90
44117;DHT22;29781;49.480;8.512;2022-09-20T21:06:10;12.80;99.90
44117;DHT22;29781;49.480;8.512;2022-09-20T21:08:38;12.80;99.90
44117;DHT22;29781;49.480;8.512;2022-09-20T21:11:08;12.80;99.90
44117;DHT22;29781;49.480;8.512;2022-09-20T21:13:35;12.70;99.90
44117;DHT22;29781;49.480;8.512;2022-09-20T21:16:06;12.70;99.90
44117;DHT22;29781;49.480;8.512;2022-09-20T21:18:33;12.70;99.90
44117;DHT22;29781;49.480;8.512;2022-09-20T21:21:00;12.90;99.90
44117;DHT22;29781;49.480;8.512;2022-09-20T21:23:27;12.90;99.90
44117;DHT22;29781;49.480;8.512;2022-09-20T21:26:06;13.00;99.90
44117;DHT22;29781;49.480;8.512;2022-09-20T21:28:37;12.90;99.90
44117;DHT22;29781;49.480;8.512;2022-09-20T21:31:04;12.80;99.90
44117;DHT22;29781;49.480;8.512;2022-09-20T21:33:36;12.50;99.90